createdAt,value
2016-06-10T00:00:37.036Z,8.53
2016-06-10T00:01:33.711Z,8.6
2016-06-10T00:02:20.995Z,8.52
2016-06-10T00:03:21.029Z,8.49
2016-06-10T00:04:33.767Z,8.6
2016-06-10T00:05:21.036Z,8.59
2016-06-10T00:06:21.085Z,8.54
2016-06-10T00:07:21.105Z,8.57
2016-06-10T00:08:33.842Z,8.53
2016-06-10T00:09:21.158Z,8.54
2016-06-10T00:10:46.801Z,8.52
2016-06-10T00:11:24.164Z,8.44
2016-06-10T00:12:53.886Z,8.49
2016-06-10T00:13:21.170Z,8.44
2016-06-10T00:14:21.235Z,8.5
2016-06-10T00:15:24.254Z,8.5
2016-06-10T00:16:21.241Z,8.42
2016-06-10T00:17:22.667Z,8.46
2016-06-10T00:18:21.280Z,8.42
2016-06-10T00:19:24.172Z,8.42
2016-06-10T00:20:21.363Z,8.44
2016-06-10T00:21:21.335Z,8.41
2016-06-10T00:22:22.917Z,8.36
2016-06-10T00:23:21.340Z,8.36
2016-06-10T00:24:21.235Z,8.31
2016-06-10T00:25:40.597Z,8.42
2016-06-10T00:26:37.272Z,8.34
2016-06-10T00:27:37.307Z,8.38
2016-06-10T00:28:24.560Z,8.32
2016-06-10T00:31:05.519Z,8.42
2016-06-10T00:32:05.553Z,8.38
2016-06-10T00:33:18.293Z,8.35
2016-06-10T00:34:18.360Z,8.34
2016-06-10T00:35:31.441Z,8.41
2016-06-10T00:36:31.397Z,8.41
2016-06-10T00:37:36.916Z,8.46
2016-06-10T00:38:05.634Z,8.39
2016-06-10T00:40:16.737Z,8.32
2016-06-10T00:41:16.818Z,8.34
2016-06-10T00:42:16.774Z,8.28
2016-06-10T00:43:18.169Z,8.32
2016-06-10T00:44:16.749Z,8.35
2016-06-10T00:45:21.205Z,8.32
2016-06-10T00:46:16.772Z,8.34
2016-06-10T00:47:29.540Z,8.28
2016-06-10T00:48:18.247Z,8.39
2016-06-10T00:49:16.842Z,8.35
2016-06-10T00:50:18.284Z,8.34
2016-06-10T00:51:17.552Z,8.32
2016-06-10T00:52:16.899Z,8.35
2016-06-10T00:53:36.121Z,8.32
2016-06-10T00:54:36.358Z,8.31
2016-06-10T00:55:16.971Z,8.28
2016-06-10T00:56:42.646Z,8.28
2016-06-10T00:57:26.602Z,8.27
2016-06-10T00:58:26.605Z,8.21
2016-06-10T00:59:26.812Z,8.24
2016-06-10T01:00:54.862Z,8.35
2016-06-10T01:01:26.865Z,8.31
2016-06-10T01:02:57.961Z,8.31
2016-06-10T01:03:36.277Z,8.32
2016-06-10T01:05:07.592Z,8.36
2016-06-10T01:05:48.877Z,8.38
2016-06-10T01:06:36.333Z,8.36
2016-06-10T01:07:36.336Z,8.34
2016-06-10T01:08:36.354Z,8.39
2016-06-10T01:09:36.373Z,8.39
2016-06-10T01:10:36.596Z,8.31
2016-06-10T01:11:36.411Z,8.32
2016-06-10T01:12:36.430Z,8.38
2016-06-10T01:13:36.527Z,8.38
2016-06-10T01:14:36.483Z,8.42
2016-06-10T01:15:36.564Z,8.41
2016-06-10T01:16:36.489Z,8.39
2016-06-10T01:17:39.554Z,8.54
2016-06-10T01:18:36.542Z,8.46
2016-06-10T01:19:49.279Z,8.44
2016-06-10T01:20:55.767Z,8.52
2016-06-10T01:21:36.582Z,8.54
2016-06-10T01:22:36.585Z,8.63
2016-06-10T01:24:02.307Z,8.53
2016-06-10T01:24:52.514Z,8.64
2016-06-10T01:25:58.985Z,8.72
2016-06-10T01:26:58.848Z,8.78
2016-06-10T01:28:11.959Z,8.77
2016-06-10T01:28:46.307Z,8.78
2016-06-10T01:30:59.079Z,8.87
2016-06-10T01:31:46.346Z,8.82
2016-06-10T01:32:46.475Z,8.86
2016-06-10T01:33:46.244Z,8.81
2016-06-10T01:34:49.575Z,8.79
2016-06-10T01:35:46.406Z,8.81
2016-06-10T01:36:46.441Z,8.81
2016-06-10T01:37:46.459Z,8.82
2016-06-10T01:38:46.368Z,8.92
2016-06-10T01:39:59.247Z,8.87
2016-06-10T01:40:46.657Z,8.92
2016-06-10T01:41:59.127Z,9.03
2016-06-10T01:42:46.538Z,8.95
2016-06-10T01:44:49.153Z,9.11
2016-06-10T01:45:01.903Z,9
2016-06-10T01:46:01.906Z,8.99
2016-06-10T01:47:01.768Z,9.09
2016-06-10T01:48:01.943Z,9.13
2016-06-10T01:49:01.962Z,9.24
2016-06-10T01:50:09.652Z,9.21
2016-06-10T01:51:01.983Z,9.15
2016-06-10T01:52:02.003Z,9.21
2016-06-10T01:53:14.758Z,9.27
2016-06-10T01:54:02.039Z,9.3
2016-06-10T01:55:20.984Z,9.27
2016-06-10T01:56:03.499Z,9.34
2016-06-10T01:58:17.290Z,9.49
2016-06-10T01:59:17.324Z,9.52
2016-06-10T02:00:26.718Z,9.48
2016-06-10T02:01:30.002Z,9.45
2016-06-10T02:02:17.380Z,9.54
2016-06-10T02:03:36.602Z,9.49
2016-06-10T02:04:17.401Z,9.47
2016-06-10T02:05:17.437Z,9.51
2016-06-10T02:06:17.532Z,9.39
2016-06-10T02:07:17.458Z,9.39
2016-06-10T02:08:17.571Z,9.47
2016-06-10T02:09:20.526Z,9.45
2016-06-10T02:10:31.249Z,9.45
2016-06-10T02:11:17.391Z,9.51
2016-06-10T02:12:33.317Z,9.55
2016-06-10T02:13:30.148Z,9.59
2016-06-10T02:14:17.589Z,9.58
2016-06-10T02:15:17.607Z,9.59
2016-06-10T02:17:17.692Z,9.62
2016-06-10T02:18:17.491Z,9.64
2016-06-10T02:19:17.791Z,9.64
2016-06-10T02:20:20.747Z,9.64
2016-06-10T02:21:17.735Z,9.67
2016-06-10T02:22:24.082Z,9.76
2016-06-10T02:23:17.803Z,9.76
2016-06-10T02:24:19.182Z,9.74
2016-06-10T02:25:17.795Z,9.69
2016-06-10T02:26:17.798Z,9.74
2016-06-10T02:27:17.816Z,9.74
2016-06-10T02:28:30.429Z,9.76
2016-06-10T02:29:17.869Z,9.77
2016-06-10T02:30:19.279Z,9.77
2016-06-10T02:31:17.906Z,9.8
2016-06-10T02:32:30.753Z,9.82
2016-06-10T02:33:25.788Z,9.74
2016-06-10T02:34:18.073Z,9.82
2016-06-10T02:35:24.309Z,9.81
2016-06-10T02:36:18.031Z,9.81
2016-06-10T02:37:18.019Z,9.82
2016-06-10T02:38:37.279Z,9.9
2016-06-10T02:39:19.554Z,9.88
2016-06-10T02:40:44.563Z,9.9
2016-06-10T02:41:30.979Z,9.88
2016-06-10T02:42:18.292Z,9.91
2016-06-10T02:43:18.433Z,9.91
2016-06-10T02:44:31.090Z,9.97
2016-06-10T02:45:18.388Z,9.99
2016-06-10T02:46:37.624Z,9.99
2016-06-10T02:47:19.855Z,10
2016-06-10T02:48:18.457Z,10.06
2016-06-10T02:49:31.263Z,10.09
2016-06-10T02:50:18.520Z,10.1
2016-06-10T02:51:18.559Z,10.03
2016-06-10T02:52:18.580Z,10.06
2016-06-10T02:53:31.335Z,10.15
2016-06-10T02:54:26.294Z,10.2
2016-06-10T02:55:37.861Z,10.17
2016-06-10T02:56:18.663Z,10.2
2016-06-10T02:57:18.652Z,10.18
2016-06-10T02:58:50.077Z,10.2
2016-06-10T02:59:37.909Z,10.24
2016-06-10T03:00:18.710Z,10.24
2016-06-10T03:01:18.792Z,10.31
2016-06-10T03:02:18.906Z,10.34
2016-06-10T03:04:21.364Z,10.36
2016-06-10T03:04:34.020Z,10.43
2016-06-10T03:05:34.024Z,10.33
2016-06-10T03:06:46.901Z,10.31
2016-06-10T03:07:53.264Z,10.39
2016-06-10T03:08:37.064Z,10.41
2016-06-10T03:09:56.427Z,10.36
2016-06-10T03:10:39.320Z,10.42
2016-06-10T03:12:08.573Z,10.42
2016-06-10T03:12:53.139Z,10.48
2016-06-10T03:13:53.251Z,10.53
2016-06-10T03:15:05.896Z,10.49
2016-06-10T03:15:53.195Z,10.59
2016-06-10T03:17:18.920Z,10.57
2016-06-10T03:17:53.217Z,10.62
2016-06-10T03:19:24.550Z,10.67
2016-06-10T03:19:53.269Z,10.58
2016-06-10T03:22:09.932Z,10.71
2016-06-10T03:23:09.795Z,10.64
2016-06-10T03:24:13.000Z,10.61
2016-06-10T03:25:10.395Z,10.65
2016-06-10T03:26:23.151Z,10.64
2016-06-10T03:27:29.357Z,10.71
2016-06-10T03:28:10.029Z,10.72
2016-06-10T03:30:25.257Z,10.72
2016-06-10T03:31:44.541Z,10.69
2016-06-10T03:32:25.294Z,10.76
2016-06-10T03:33:25.329Z,10.75
2016-06-10T03:34:44.596Z,10.76
2016-06-10T03:35:28.553Z,10.68
2016-06-10T03:36:41.291Z,10.75
2016-06-10T03:38:31.156Z,10.76
2016-06-10T03:38:43.781Z,10.67
2016-06-10T03:39:43.941Z,10.75
2016-06-10T03:40:43.850Z,10.71
2016-06-10T03:41:46.962Z,10.79
2016-06-10T03:42:46.935Z,10.76
2016-06-10T03:43:56.734Z,10.76
2016-06-10T03:44:43.925Z,10.86
2016-06-10T03:46:09.600Z,10.94
2016-06-10T03:46:46.993Z,10.89
2016-06-10T03:47:43.966Z,10.89
2016-06-10T03:48:50.344Z,10.89
2016-06-10T03:49:44.018Z,10.89
2016-06-10T03:50:44.178Z,10.87
2016-06-10T03:51:56.759Z,10.92
2016-06-10T03:53:09.746Z,10.98
2016-06-10T03:54:06.421Z,10.92
2016-06-10T03:54:53.721Z,11.02
2016-06-10T03:56:13.177Z,11.02
2016-06-10T03:56:53.837Z,11.01
2016-06-10T03:58:19.437Z,11.1
2016-06-10T03:59:29.064Z,11.1
2016-06-10T04:00:03.408Z,10.97
2016-06-10T04:01:34.743Z,11.19
2016-06-10T04:02:44.339Z,11.18
2016-06-10T04:03:18.682Z,11.22
2016-06-10T04:05:46.677Z,11.26
2016-06-10T04:06:33.945Z,11.3
2016-06-10T04:07:53.839Z,11.33
2016-06-10T04:08:56.295Z,11.43
2016-06-10T04:11:40.601Z,11.43
2016-06-10T04:12:40.449Z,11.59
2016-06-10T04:13:59.921Z,11.62
2016-06-10T04:15:15.141Z,11.68
2016-06-10T04:16:02.864Z,11.6
2016-06-10T04:17:12.475Z,11.62
2016-06-10T04:19:21.907Z,11.74
2016-06-10T04:20:09.157Z,11.85
2016-06-10T04:21:28.414Z,11.83
2016-06-10T04:23:40.358Z,11.99
2016-06-10T04:24:27.469Z,11.99
2016-06-10T04:26:24.632Z,12.12
2016-06-10T04:26:57.914Z,12.14
2016-06-10T04:28:07.651Z,12.14
2016-06-10T04:28:41.982Z,12.29
2016-06-10T04:30:44.644Z,12.35
2016-06-10T04:31:22.944Z,12.32
2016-06-10T04:31:57.272Z,12.4
2016-06-10T04:33:59.888Z,12.57
2016-06-10T04:34:31.735Z,12.63
2016-06-10T04:35:12.610Z,12.63
2016-06-10T04:36:38.241Z,12.69
2016-06-10T04:37:49.384Z,12.78
2016-06-10T04:38:23.778Z,12.98
2016-06-10T04:40:26.331Z,13.01
2016-06-10T04:40:39.065Z,12.88
2016-06-10T04:41:39.038Z,12.99
2016-06-10T04:42:42.071Z,12.91
2016-06-10T04:43:42.075Z,13.02
2016-06-10T04:44:39.141Z,13.11
2016-06-10T04:45:51.815Z,13.08
2016-06-10T04:46:39.225Z,13.06
2016-06-10T04:47:58.321Z,13.19
2016-06-10T04:48:58.215Z,13.3
2016-06-10T04:50:10.452Z,13.39
2016-06-10T04:51:16.612Z,13.54
2016-06-10T04:52:13.708Z,13.76
2016-06-10T04:53:26.386Z,13.85
2016-06-10T04:54:26.437Z,13.95
2016-06-10T04:56:16.252Z,14.16
2016-06-10T04:56:49.224Z,14.19
2016-06-10T04:58:45.605Z,14.18
2016-06-10T04:59:00.965Z,14.11
2016-06-10T05:00:32.440Z,14.12
2016-06-10T05:01:17.002Z,14.15
2016-06-10T05:02:36.259Z,14.16
2016-06-10T05:03:29.683Z,14.13
2016-06-10T05:04:48.373Z,14.2
2016-06-10T05:05:32.580Z,14.2
2016-06-10T05:06:32.521Z,14.16
2016-06-10T05:08:35.151Z,14.25
2016-06-10T05:08:47.792Z,14.22
2016-06-10T05:09:47.827Z,14.25
2016-06-10T05:10:49.361Z,14.36
2016-06-10T05:12:07.223Z,14.51
2016-06-10T05:12:47.867Z,14.51
2016-06-10T05:14:19.198Z,14.92
2016-06-10T05:14:48.529Z,15.14
2016-06-10T05:15:47.814Z,15.35
2016-06-10T05:17:03.067Z,15.78
2016-06-10T05:18:03.070Z,16.8
2016-06-10T05:19:03.120Z,17.69
2016-06-10T05:20:03.108Z,18.86
2016-06-10T05:21:03.080Z,20.21
2016-06-10T05:22:03.129Z,20.53
2016-06-10T05:23:15.758Z,20.15
2016-06-10T05:24:06.089Z,20.32
2016-06-10T05:25:28.892Z,20.7
2016-06-10T05:26:07.532Z,21.07
2016-06-10T05:27:37.585Z,21.92
2016-06-10T05:28:15.554Z,21.75
2016-06-10T05:29:47.044Z,22.41
2016-06-10T05:30:25.157Z,22.46
2016-06-10T05:31:50.206Z,22.26
2016-06-10T05:32:28.772Z,21.75
2016-06-10T05:33:28.572Z,20.86
2016-06-10T05:34:28.623Z,20.63
2016-06-10T05:35:30.173Z,21.05
2016-06-10T05:36:41.488Z,21.66
2016-06-10T05:37:41.413Z,22.38
2016-06-10T05:38:54.369Z,22.78
2016-06-10T05:39:28.778Z,23.14
2016-06-10T05:41:28.753Z,22.93
2016-06-10T05:41:42.144Z,22.67
2016-06-10T05:44:22.465Z,21.77
2016-06-10T05:45:16.012Z,21.89
2016-06-10T05:47:18.096Z,21.48
2016-06-10T05:48:15.193Z,21.26
2016-06-10T05:49:46.528Z,20.73
2016-06-10T05:50:24.828Z,20.6
2016-06-10T05:51:24.908Z,20.44
2016-06-10T05:52:44.115Z,19.96
2016-06-10T05:53:37.649Z,19.77
2016-06-10T05:54:56.246Z,19.67
2016-06-10T05:55:34.593Z,19.55
2016-06-10T05:57:37.177Z,18.98
2016-06-10T05:58:15.490Z,18.83
2016-06-10T05:58:49.837Z,18.64
2016-06-10T06:01:31.002Z,18.06
2016-06-10T06:02:05.252Z,18
2016-06-10T06:03:05.270Z,17.8
2016-06-10T06:04:05.290Z,17.5
2016-06-10T06:05:05.324Z,17.54
2016-06-10T06:06:05.326Z,17.38
2016-06-10T06:07:05.377Z,17.3
2016-06-10T06:08:05.396Z,17.2
2016-06-10T06:09:24.558Z,17.13
2016-06-10T06:10:08.511Z,17.16
2016-06-10T06:11:32.579Z,17.31
2016-06-10T06:12:07.923Z,17.27
2016-06-10T06:13:05.536Z,17.54
2016-06-10T06:14:08.586Z,17.6
2016-06-10T06:15:18.292Z,17.69
2016-06-10T06:16:11.874Z,17.78
2016-06-10T06:17:05.642Z,17.78
2016-06-10T06:18:19.786Z,17.9
2016-06-10T06:19:18.414Z,17.94
2016-06-10T06:20:24.920Z,17.84
2016-06-10T06:21:28.079Z,17.6
2016-06-10T06:22:08.876Z,17.54
2016-06-10T06:23:34.585Z,17.39
2016-06-10T06:24:09.085Z,17.37
2016-06-10T06:25:09.057Z,17.3
2016-06-10T06:26:28.313Z,17.37
2016-06-10T06:27:09.579Z,17.41
2016-06-10T06:28:28.507Z,17.38
2016-06-10T06:29:10.523Z,17.34
2016-06-10T06:30:40.481Z,17.47
2016-06-10T06:31:15.387Z,17.32
2016-06-10T06:32:09.141Z,17.34
2016-06-10T06:33:28.366Z,17.28
2016-06-10T06:34:28.463Z,17.24
2016-06-10T06:35:09.213Z,17.34
2016-06-10T06:36:40.516Z,17.38
2016-06-10T06:37:41.113Z,17.41
2016-06-10T06:38:09.284Z,17.39
2016-06-10T06:40:19.040Z,17.31
2016-06-10T06:41:19.107Z,17.37
2016-06-10T06:42:20.625Z,17.44
2016-06-10T06:43:20.659Z,17.24
2016-06-10T06:44:19.225Z,17.27
2016-06-10T06:45:19.244Z,17.35
2016-06-10T06:46:31.969Z,17.24
2016-06-10T06:47:38.409Z,17.22
2016-06-10T06:48:50.506Z,17.16
2016-06-10T06:49:19.084Z,17.28
2016-06-10T06:50:19.259Z,17.31
2016-06-10T06:52:21.875Z,17.82
2016-06-10T06:52:34.518Z,17.88
2016-06-10T06:53:34.537Z,18.02
2016-06-10T06:54:47.321Z,18.08
2016-06-10T06:55:34.589Z,18.33
2016-06-10T06:56:35.078Z,18.58
2016-06-10T06:57:37.690Z,18.97
2016-06-10T06:58:53.881Z,19.48
2016-06-10T06:59:47.320Z,19.78
2016-06-10T07:01:05.996Z,20.89
2016-06-10T07:01:34.733Z,21.1
2016-06-10T07:02:34.830Z,21.25
2016-06-10T07:03:34.786Z,21.11
2016-06-10T07:04:47.572Z,21.05
2016-06-10T07:05:48.995Z,21.45
2016-06-10T07:07:00.545Z,22.18
2016-06-10T07:08:06.206Z,23.1
2016-06-10T07:12:15.921Z,24.89
2016-06-10T07:13:47.802Z,25.22
2016-06-10T07:14:47.836Z,25.34
2016-06-10T07:15:50.917Z,25.63
2016-06-10T07:17:07.108Z,26.27
2016-06-10T07:17:51.048Z,26.52
2016-06-10T07:19:10.348Z,26.49
2016-06-10T07:21:51.373Z,25.36
2016-06-10T07:22:56.922Z,25.24
2016-06-10T07:24:35.336Z,24.78
2016-06-10T07:25:28.932Z,23.86
2016-06-10T07:26:48.170Z,22.91
2016-06-10T07:27:32.142Z,22.52
2016-06-10T07:28:44.879Z,22.58
2016-06-10T07:30:47.261Z,22.7
2016-06-10T07:31:47.638Z,23.51
2016-06-10T07:32:47.313Z,23.54
2016-06-10T07:33:55.051Z,24
2016-06-10T07:34:48.803Z,23.85
2016-06-10T07:36:13.072Z,25.11
2016-06-10T07:36:56.997Z,25.29
2016-06-10T07:38:22.719Z,25.29
2016-06-10T07:39:06.676Z,25.07
2016-06-10T07:40:25.991Z,24.22
2016-06-10T07:41:19.557Z,24.07
2016-06-10T07:42:38.063Z,23.28
2016-06-10T07:43:26.000Z,22.84
2016-06-10T07:44:06.848Z,22.4
2016-06-10T07:45:32.743Z,21.97
2016-06-10T07:46:16.712Z,21.78
2016-06-10T07:47:16.746Z,21.54
2016-06-10T07:49:57.677Z,21.41
2016-06-10T07:50:32.041Z,21.51
2016-06-10T07:52:47.296Z,21.84
2016-06-10T07:53:47.175Z,21.81
2016-06-10T07:54:47.350Z,21.59
2016-06-10T07:56:07.087Z,21.89
2016-06-10T07:56:48.121Z,21.91
2016-06-10T07:58:18.735Z,21.74
2016-06-10T07:58:57.190Z,21.78
2016-06-10T08:00:57.212Z,21.47
2016-06-10T08:01:58.653Z,21.33
2016-06-10T08:02:57.092Z,21.08
2016-06-10T08:04:16.284Z,20.86
2016-06-10T08:05:09.974Z,20.93
2016-06-10T08:06:28.668Z,20.88
2016-06-10T08:07:26.293Z,20.86
2016-06-10T08:08:00.655Z,20.88
2016-06-10T08:10:03.333Z,21.14
2016-06-10T08:10:35.867Z,21.37
2016-06-10T08:11:16.024Z,21.47
2016-06-10T08:13:56.893Z,21.23
2016-06-10T08:14:31.129Z,21.2
2016-06-10T08:16:33.761Z,21.13
2016-06-10T08:17:12.058Z,20.92
2016-06-10T08:17:46.466Z,20.85
2016-06-10T08:19:49.052Z,20.63
2016-06-10T08:20:27.458Z,20.58
2016-06-10T08:21:01.742Z,20.52
2016-06-10T08:22:01.776Z,20.59
2016-06-10T08:23:14.545Z,20.7
2016-06-10T08:24:02.626Z,20.92
2016-06-10T08:25:21.051Z,21.05
2016-06-10T08:26:04.913Z,21.13
2016-06-10T08:27:29.013Z,21.19
2016-06-10T08:28:14.732Z,21.47
2016-06-10T08:29:39.535Z,21.47
2016-06-10T08:30:27.660Z,21.48
2016-06-10T08:31:02.038Z,21.63
2016-06-10T08:32:02.057Z,21.99
2016-06-10T08:33:03.512Z,22.15
2016-06-10T08:34:14.844Z,22.31
2016-06-10T08:35:14.893Z,22.3
2016-06-10T08:36:27.835Z,22.43
2016-06-10T08:37:21.400Z,22.55
2016-06-10T08:38:36.625Z,22.49
2016-06-10T08:39:36.644Z,22.55
2016-06-10T08:42:17.823Z,21.83
2016-06-10T08:42:51.887Z,21.66
2016-06-10T08:44:55.112Z,21.1
2016-06-10T08:45:52.115Z,21.08
2016-06-10T08:47:04.916Z,21.05
2016-06-10T08:47:55.200Z,20.88
2016-06-10T08:49:17.891Z,21.11
2016-06-10T08:50:06.378Z,21.07
2016-06-10T08:51:23.584Z,21.45
2016-06-10T08:52:13.837Z,21.62
2016-06-10T08:53:26.824Z,22.34
2016-06-10T08:54:10.765Z,22.3
2016-06-10T08:56:52.961Z,22.78
2016-06-10T08:57:52.325Z,22.89
2016-06-10T08:58:52.328Z,23.02
2016-06-10T09:00:00.050Z,22.89
2016-06-10T09:01:11.615Z,22.56
2016-06-10T09:02:18.102Z,22.63
2016-06-10T09:04:55.752Z,22.33
2016-06-10T09:05:36.553Z,21.84
2016-06-10T09:06:36.603Z,21.89
2016-06-10T09:07:49.417Z,22.01
2016-06-10T09:08:36.655Z,21.77
2016-06-10T09:10:52.567Z,21.4
2016-06-10T09:11:59.367Z,21.25
2016-06-10T09:12:46.682Z,20.93
2016-06-10T09:14:17.686Z,21.26
2016-06-10T09:15:01.627Z,21.6
2016-06-10T09:17:36.808Z,22.53
2016-06-10T09:19:01.873Z,22.78
2016-06-10T09:20:17.095Z,23.13
2016-06-10T09:21:17.145Z,23.34
2016-06-10T09:22:36.354Z,23.44
2016-06-10T09:23:45.874Z,23.23
2016-06-10T09:24:20.389Z,23.16
2016-06-10T09:26:35.976Z,22.81
2016-06-10T09:27:36.229Z,22.78
2016-06-10T09:28:35.684Z,22.7
2016-06-10T09:29:48.360Z,22.81
2016-06-10T09:30:54.676Z,23.18
2016-06-10T09:32:01.304Z,23.16
2016-06-10T09:34:42.219Z,22.84
2016-06-10T09:35:16.407Z,22.8
2016-06-10T09:37:19.834Z,22.25
2016-06-10T09:37:32.494Z,22.36
2016-06-10T09:38:32.528Z,22.06
2016-06-10T09:39:33.969Z,21.83
2016-06-10T09:40:32.582Z,21.84
2016-06-10T09:41:51.929Z,21.88
2016-06-10T09:43:07.666Z,21.72
2016-06-10T09:43:55.091Z,21.62
2016-06-10T09:45:07.219Z,21.48
2016-06-10T09:46:03.034Z,21.51
2016-06-10T09:47:18.287Z,21.94
2016-06-10T09:48:27.915Z,21.94
2016-06-10T09:49:02.247Z,22.14
2016-06-10T09:51:17.518Z,21.66
2016-06-10T09:52:17.569Z,21.94
2016-06-10T09:53:25.306Z,22.1
2016-06-10T09:54:30.450Z,22.43
2016-06-10T09:55:43.331Z,22.59
2016-06-10T09:56:17.690Z,22.38
2016-06-10T09:57:48.853Z,22.22
2016-06-10T09:58:17.603Z,22.15
2016-06-10T09:59:17.762Z,22.37
2016-06-10T10:00:33.015Z,22.38
2016-06-10T10:01:33.033Z,22.62
2016-06-10T10:02:45.821Z,22.65
2016-06-10T10:03:45.872Z,22.62
2016-06-10T10:04:52.312Z,22.76
2016-06-10T10:06:30.112Z,22.59
2016-06-10T10:07:39.790Z,22.63
2016-06-10T10:08:08.493Z,22.65
2016-06-10T10:09:08.543Z,22.78
2016-06-10T10:10:08.561Z,22.77
2016-06-10T10:11:08.596Z,22.26
2016-06-10T10:12:08.630Z,21.91
2016-06-10T10:13:09.961Z,21.75
2016-06-10T10:14:08.839Z,21.48
2016-06-10T10:15:21.451Z,21.23
2016-06-10T10:16:21.487Z,21.13
2016-06-10T10:17:39.898Z,20.92
2016-06-10T10:18:49.151Z,20.89
2016-06-10T10:19:36.342Z,20.98
2016-06-10T10:21:02.002Z,21.19
2016-06-10T10:21:45.957Z,21.23
2016-06-10T10:23:11.492Z,21.25
2016-06-10T10:24:26.714Z,21.51
2016-06-10T10:25:17.795Z,21.6
2016-06-10T10:25:58.439Z,21.51
2016-06-10T10:27:59.226Z,21.53
2016-06-10T10:29:09.057Z,21.74
2016-06-10T10:29:47.216Z,21.85
2016-06-10T10:31:49.988Z,22.03
2016-06-10T10:32:02.691Z,21.75
2016-06-10T10:33:02.647Z,21.5
2016-06-10T10:34:15.401Z,21.47
2016-06-10T10:35:02.717Z,21.33
2016-06-10T10:36:23.345Z,21.37
2016-06-10T10:37:02.754Z,21.3
2016-06-10T10:38:28.460Z,21.2
2016-06-10T10:39:12.400Z,21.2
2016-06-10T10:40:31.685Z,21.13
2016-06-10T10:41:12.579Z,21.05
2016-06-10T10:42:43.976Z,20.74
2016-06-10T10:43:21.992Z,20.8
2016-06-10T10:45:37.297Z,20.86
2016-06-10T10:46:37.299Z,20.88
2016-06-10T10:47:37.302Z,20.89
2016-06-10T10:49:02.821Z,20.88
2016-06-10T10:49:46.669Z,20.92
2016-06-10T10:51:15.500Z,21.03
2016-06-10T10:52:05.706Z,21.01
2016-06-10T10:58:01.084Z,20.59
2016-06-10T10:59:04.228Z,20.71
2016-06-10T11:00:04.277Z,20.74
2016-06-10T11:01:04.436Z,20.52
2016-06-10T11:02:16.877Z,20.75
2016-06-10T11:03:07.506Z,20.92
2016-06-10T11:04:24.259Z,21.05
2016-06-10T11:05:10.652Z,21.28
2016-06-10T11:06:33.218Z,21.56
2016-06-10T11:07:44.099Z,21.69
2016-06-10T11:08:17.036Z,21.8
2016-06-10T11:09:48.355Z,21.74
2016-06-10T11:10:26.652Z,21.62
2016-06-10T11:12:29.283Z,21.59
2016-06-10T11:13:01.099Z,21.45
2016-06-10T11:13:42.054Z,21.29
2016-06-10T11:15:13.401Z,21.3
2016-06-10T11:15:51.546Z,21.33
2016-06-10T11:16:51.721Z,21.32
2016-06-10T11:17:53.177Z,21.29
2016-06-10T11:19:11.055Z,20.95
2016-06-10T11:19:51.886Z,20.98
2016-06-10T11:21:23.124Z,21.14
2016-06-10T11:22:01.299Z,21.29
2016-06-10T11:23:58.305Z,21.29
2016-06-10T11:24:10.789Z,21.14
2016-06-10T11:25:10.901Z,21.26
2016-06-10T11:26:23.577Z,21.26
2016-06-10T11:27:12.798Z,21.01
2016-06-10T11:28:36.567Z,20.89
2016-06-10T11:29:46.260Z,20.9
2016-06-10T11:30:55.654Z,21.03
2016-06-10T11:31:55.673Z,21.28
2016-06-10T11:33:08.691Z,21.43
2016-06-10T11:33:42.991Z,21.54
2016-06-10T11:35:14.307Z,21.88
2016-06-10T11:35:52.638Z,21.81
2016-06-10T11:37:49.613Z,21.66
2016-06-10T11:38:02.300Z,21.5
2016-06-10T11:39:59.260Z,21.41
2016-06-10T11:40:13.307Z,21.45
2016-06-10T11:42:15.906Z,21.25
2016-06-10T11:42:28.468Z,21.41
2016-06-10T11:43:28.972Z,21.38
2016-06-10T11:44:41.282Z,21.19
2016-06-10T11:45:31.564Z,21.17
2016-06-10T11:46:54.321Z,21.3
2016-06-10T11:47:34.930Z,21.48
2016-06-10T11:48:28.800Z,21.7
2016-06-10T11:49:28.785Z,22
2016-06-10T11:50:28.834Z,22
2016-06-10T11:51:28.867Z,21.94
2016-06-10T11:52:48.230Z,22.03
2016-06-10T11:53:32.168Z,22.15
2016-06-10T11:56:38.634Z,22.49
2016-06-10T11:57:13.643Z,22.65
2016-06-10T11:59:15.705Z,22.78
2016-06-10T11:59:47.615Z,22.78
2016-06-10T12:00:28.459Z,22.63
2016-06-10T12:02:31.048Z,22.92
2016-06-10T12:03:09.366Z,23.07
2016-06-10T12:03:43.729Z,23.13
2016-06-10T12:05:46.314Z,22.77
2016-06-10T12:06:18.283Z,22.81
2016-06-10T12:06:59.005Z,22.68
2016-06-10T12:09:01.605Z,21.38
2016-06-10T12:09:39.980Z,21.17
2016-06-10T12:10:14.312Z,21.22
2016-06-10T12:11:45.648Z,21.17
2016-06-10T12:12:24.913Z,21.26
2016-06-10T12:13:48.764Z,21.29
2016-06-10T12:14:17.342Z,21.14
2016-06-10T12:15:17.500Z,20.89
2016-06-10T12:16:36.583Z,20.93
2016-06-10T12:17:52.479Z,21.08
2016-06-10T12:18:33.307Z,21.15
2016-06-10T12:19:33.326Z,21.5
2016-06-10T12:20:52.566Z,21.58
2016-06-10T12:21:33.363Z,21.63
2016-06-10T12:23:43.139Z,22.01
2016-06-10T12:25:02.282Z,22.03
2016-06-10T12:26:17.534Z,22.08
2016-06-10T12:27:05.475Z,22.21
2016-06-10T12:28:30.323Z,22.16
2016-06-10T12:29:21.965Z,22.18
2016-06-10T12:30:53.191Z,22.33
2016-06-10T12:32:02.927Z,22.31
2016-06-10T12:32:37.162Z,22.3
2016-06-10T12:33:37.259Z,22.33
2016-06-10T12:35:02.937Z,22.1
2016-06-10T12:35:46.956Z,22.08
2016-06-10T12:36:46.928Z,21.99
2016-06-10T12:37:59.743Z,21.66
2016-06-10T12:38:49.997Z,21.56
2016-06-10T12:40:12.671Z,21.33
2016-06-10T12:40:59.752Z,21.4
2016-06-10T12:42:18.318Z,21.37
2016-06-10T12:43:02.181Z,21.38
2016-06-10T12:44:02.153Z,21.2
2016-06-10T12:45:21.422Z,21.4
2016-06-10T12:46:11.706Z,21.41
2016-06-10T12:48:21.587Z,21.33
2016-06-10T12:48:34.227Z,21.44
2016-06-10T12:50:49.362Z,21.85
2016-06-10T12:51:49.771Z,21.81
2016-06-10T12:53:02.322Z,21.75
2016-06-10T12:53:51.011Z,21.8
2016-06-10T12:55:08.670Z,21.78
2016-06-10T12:55:58.876Z,21.89
2016-06-10T12:58:08.883Z,21.83
2016-06-10T12:58:34.430Z,21.74
2016-06-10T13:00:43.688Z,21.33
2016-06-10T13:02:08.739Z,21.35
2016-06-10T13:02:57.133Z,21.23
2016-06-10T13:04:14.948Z,20.95
2016-06-10T13:05:08.373Z,20.9
2016-06-10T13:06:27.111Z,21.14
2016-06-10T13:07:18.224Z,21.3
2016-06-10T13:08:30.351Z,21.25
2016-06-10T13:09:40.011Z,21.25
2016-06-10T13:10:33.591Z,21.26
2016-06-10T13:12:20.114Z,21.48
2016-06-10T13:12:33.114Z,21.47
2016-06-10T13:13:32.819Z,21.37
2016-06-10T13:14:59.920Z,21.48
2016-06-10T13:16:09.532Z,21.45
2016-06-10T13:16:43.863Z,21.37
2016-06-10T13:18:46.494Z,21.32
2016-06-10T13:19:24.822Z,21.35
2016-06-10T13:19:59.263Z,21.38
2016-06-10T13:22:01.786Z,21.1
2016-06-10T13:22:40.161Z,21.08
2016-06-10T13:23:14.507Z,21.17
2016-06-10T13:25:17.107Z,21.23
2016-06-10T13:25:55.313Z,21.26
2016-06-10T13:26:29.673Z,21.25
2016-06-10T13:28:46.557Z,21.26
2016-06-10T13:29:45.044Z,21.35
2016-06-10T13:31:47.753Z,21.47
2016-06-10T13:32:19.706Z,21.53
2016-06-10T13:33:00.429Z,21.51
2016-06-10T13:34:31.604Z,21.38
2016-06-10T13:35:09.919Z,21.35
2016-06-10T13:36:35.624Z,21.43
2016-06-10T13:37:13.957Z,21.26
2016-06-10T13:39:16.572Z,21.35
2016-06-10T13:39:54.966Z,21.33
2016-06-10T13:40:48.500Z,21.23
2016-06-10T13:41:58.097Z,21.04
2016-06-10T13:42:51.740Z,21.17
2016-06-10T13:44:38.103Z,20.93
2016-06-10T13:45:06.840Z,20.93
2016-06-10T13:46:06.890Z,20.86
2016-06-10T13:47:19.659Z,20.89
2016-06-10T13:48:06.943Z,20.82
2016-06-10T13:49:06.821Z,20.88
2016-06-10T13:50:07.027Z,20.95
2016-06-10T13:52:09.580Z,20.67
2016-06-10T13:52:22.330Z,20.68
2016-06-10T13:53:22.396Z,20.83
2016-06-10T13:54:35.212Z,20.89
2016-06-10T13:55:25.402Z,20.98
2016-06-10T13:56:48.018Z,21.08
2016-06-10T13:57:28.627Z,21.14
2016-06-10T13:58:22.536Z,21.22
2016-06-10T13:59:38.367Z,21.51
2016-06-10T14:01:32.171Z,21.88
2016-06-10T14:02:33.612Z,22.03
2016-06-10T14:03:35.240Z,21.85
2016-06-10T14:04:45.196Z,21.81
2016-06-10T14:05:38.699Z,21.68
2016-06-10T14:06:32.436Z,21.59
2016-06-10T14:07:32.502Z,21.69
2016-06-10T14:08:45.098Z,21.97
2016-06-10T14:09:32.664Z,22.07
2016-06-10T14:11:44.904Z,21.7
2016-06-10T14:12:44.939Z,21.92
2016-06-10T14:14:04.507Z,21.5
2016-06-10T14:14:46.429Z,21.48
2016-06-10T14:17:06.516Z,21.01
2016-06-10T14:18:06.582Z,21.15
2016-06-10T14:19:07.803Z,21.37
2016-06-10T14:20:25.792Z,21.56
2016-06-10T14:21:08.029Z,21.43
2016-06-10T14:22:33.735Z,21.44
2016-06-10T14:23:18.004Z,21.6
2016-06-10T14:24:43.710Z,21.54
2016-06-10T14:25:30.807Z,21.26
2016-06-10T14:26:49.375Z,20.86
2016-06-10T14:27:43.781Z,21.14